Terminal Aerodrome Forecast
Issued by NWS

Home | Current Version | Previous Version | Text Only | Print | Product List | Glossary On
Versions: 1 2 3 4 5 6 7 8 9 10 11 12 13 14 15 16
000
FTUS41 KBOX 251120
TAFFMH
TAF
KFMH 251120Z 2512/2612 14011KT P6SM -RA OVC050
     FM251400 14012KT 4SM -RA OVC025
     FM251700 13012G20KT 3SM -RA BR OVC010
     FM251800 13013G21KT 3SM -RA BR OVC008 WS020/15040KT
     FM252000 13013G23KT 1 1/2SM +RA BR OVC008 WS020/16045KT
     FM260000 16014G23KT 2SM -SHRA BR OVC008 WS020/18050KT
     FM260800 18009KT 1 1/2SM -SHRA BR OVC003
     FM261100 21008KT 1SM BR OVC003=

USA.gov is the U.S. government's official web portal to all federal, state and local government web resources and services.